Time;durP1;ratioP1;P1;durP2;ratioP2;P2;SDS_P1;SDS_P2;PMS_P1;PMS_P2;Temp;Humidity;BMP_temperature;BMP_pressure;BME280_temperature;BME280_humidity;BME280_pressure;Samples;Min_cycle;Max_cycle;Signal;HPM_P1;HPM_P2
2021/08/29 00:00:20;;;;;;;113.60;59.80;;;;;;;13.11;79.57;99546.04;115572;1204;22312;-55
2021/08/29 00:02:48;;;;;;;147.00;76.60;;;;;;;13.10;79.47;99539.80;115527;1205;23115;-55
2021/08/29 00:05:16;;;;;;;297.10;158.40;;;;;;;13.10;79.70;99533.06;115420;1199;138268;-55
2021/08/29 00:07:45;;;;;;;244.40;122.80;;;;;;;13.10;79.95;99525.73;115572;1205;22298;-57
2021/08/29 00:10:13;;;;;;;206.80;100.90;;;;;;;13.13;80.12;99523.75;115456;1202;138728;-55
2021/08/29 00:12:42;;;;;;;217.60;115.20;;;;;;;13.22;79.96;99527.50;115493;1205;22407;-55
2021/08/29 00:15:11;;;;;;;213.50;112.60;;;;;;;13.31;79.47;99538.20;115594;1204;23164;-55
2021/08/29 00:17:42;;;;;;;205.30;111.40;;;;;;;13.37;79.13;99544.29;115429;1199;138337;-55
2021/08/29 00:20:11;;;;;;;200.60;108.60;;;;;;;13.40;78.90;99549.33;115554;1210;23010;-55
2021/08/29 00:22:40;;;;;;;180.60;97.30;;;;;;;13.43;78.67;99555.27;115475;1202;140101;-55
2021/08/29 00:25:09;;;;;;;164.60;89.10;;;;;;;13.45;78.58;99550.72;115496;1205;22208;-55
2021/08/29 00:27:37;;;;;;;136.90;75.50;;;;;;;13.45;78.71;99547.33;115451;1199;138740;-55
2021/08/29 00:30:05;;;;;;;75.90;44.90;;;;;;;13.45;78.69;99543.83;115464;1205;23286;-55
2021/08/29 00:32:34;;;;;;;86.90;47.50;;;;;;;13.47;78.72;99534.08;115488;1205;22328;-55
2021/08/29 00:35:02;;;;;;;85.20;36.40;;;;;;;13.51;78.81;99530.20;115426;1201;138733;-55
2021/08/29 00:37:30;;;;;;;72.50;38.90;;;;;;;13.59;78.71;99518.29;115491;1210;22815;-55
2021/08/29 00:40:16;;;;;;;100.70;52.70;;;;;;;13.73;78.62;99511.84;115409;1203;137845;-55
2021/08/29 00:42:50;;;;;;;44.60;25.00;;;;;;;13.87;78.35;99511.73;115419;1205;22311;-54
2021/08/29 00:45:21;;;;;;;39.80;23.70;;;;;;;13.98;78.13;99520.35;115506;1204;22331;-54
2021/08/29 00:47:49;;;;;;;63.10;37.00;;;;;;;14.08;78.05;99533.67;115452;1205;137961;-55
2021/08/29 00:50:19;;;;;;;95.90;55.50;;;;;;;14.15;78.02;99530.41;115463;1205;22387;-56
2021/08/29 00:52:47;;;;;;;176.40;113.00;;;;;;;14.18;77.98;99522.88;115390;1201;138992;-55
2021/08/29 00:55:17;;;;;;;137.90;90.30;;;;;;;14.19;77.75;99519.21;115573;1205;23126;-55
2021/08/29 00:57:49;;;;;;;135.30;84.90;;;;;;;14.25;77.73;99525.71;115345;1199;138810;-55
2021/08/29 01:00:20;;;;;;;157.90;106.90;;;;;;;14.29;77.72;99523.70;115568;1205;23031;-56
2021/08/29 01:02:55;;;;;;;84.10;53.30;;;;;;;14.34;77.68;99515.40;115436;1205;22371;-55
2021/08/29 01:05:28;;;;;;;43.80;27.90;;;;;;;14.37;77.66;99509.96;115426;1201;138081;-55
2021/08/29 01:08:16;;;;;;;22.30;16.80;;;;;;;14.43;77.60;99505.56;115553;1204;27186;-55
2021/08/29 01:10:56;;;;;;;46.10;29.90;;;;;;;14.48;77.49;99507.57;115418;1201;138832;-55
2021/08/29 01:13:47;;;;;;;50.90;34.60;;;;;;;14.54;77.51;99508.15;115520;1205;23227;-55
2021/08/29 01:16:33;;;;;;;24.30;14.90;;;;;;;14.55;77.60;99497.29;115387;1205;138287;-55
2021/08/29 01:19:15;;;;;;;17.90;12.90;;;;;;;14.55;77.38;99500.52;115559;1205;22890;-55
2021/08/29 01:21:48;;;;;;;27.40;19.00;;;;;;;14.55;77.41;99506.86;115392;1199;139227;-55
2021/08/29 01:24:19;;;;;;;30.90;19.30;;;;;;;14.58;77.57;99518.02;115450;1209;22256;-55
2021/08/29 01:26:55;;;;;;;37.50;23.00;;;;;;;14.61;77.84;99523.28;115495;1204;23023;-55
2021/08/29 01:29:27;;;;;;;;;;;;;;;14.62;77.95;99530.84;115376;1202;138205;-55
2021/08/29 01:31:58;;;;;;;36.50;22.30;;;;;;;14.63;78.07;99533.79;115503;1205;22392;-56
2021/08/29 01:34:27;;;;;;;34.60;21.60;;;;;;;14.63;78.32;99528.14;115349;1201;139149;-55
2021/08/29 01:37:15;;;;;;;34.40;19.30;;;;;;;14.63;78.39;99515.48;115544;1205;22289;-55
2021/08/29 01:39:44;;;;;;;32.20;15.40;;;;;;;14.65;78.60;99514.86;114328;1199;138708;-55
2021/08/29 01:42:13;;;;;;;27.30;18.40;;;;;;;14.69;78.73;99510.56;111416;1205;25112;-55
2021/08/29 01:44:41;;;;;;;35.60;17.40;;;;;;;14.73;78.84;99511.23;115328;1205;22360;-56
2021/08/29 01:47:10;;;;;;;31.20;16.20;;;;;;;14.77;78.84;99516.38;115222;1205;141275;-55
2021/08/29 01:49:38;;;;;;;25.90;14.10;;;;;;;14.81;78.67;99518.65;115423;1211;22370;-55
2021/08/29 01:52:06;;;;;;;57.00;29.40;;;;;;;14.85;78.51;99518.66;115451;1199;138352;-55
2021/08/29 01:54:45;;;;;;;61.50;28.30;;;;;;;14.91;78.32;99511.16;115450;1205;22337;-55
2021/08/29 01:57:21;;;;;;;71.70;33.40;;;;;;;14.94;78.11;99506.97;115582;1204;22352;-55
2021/08/29 01:59:54;;;;;;;78.70;33.50;;;;;;;14.98;77.99;99508.69;115496;1199;137914;-56
2021/08/29 02:02:22;;;;;;;51.60;25.10;;;;;;;15.01;77.88;99505.31;115602;1205;22342;-56
2021/08/29 02:04:50;;;;;;;24.50;14.20;;;;;;;15.05;77.68;99505.27;115408;1201;138033;-56
2021/08/29 02:07:26;;;;;;;17.00;11.70;;;;;;;15.10;77.60;99508.70;115527;1205;22151;-55
2021/08/29 02:10:08;;;;;;;13.20;9.90;;;;;;;15.13;77.41;99516.55;115338;1201;138329;-55
2021/08/29 02:12:40;;;;;;;16.50;11.20;;;;;;;15.18;77.35;99524.63;115509;1205;22359;-55
2021/08/29 02:15:15;;;;;;;17.00;9.60;;;;;;;15.23;77.54;99520.39;115521;1204;22216;-55
2021/08/29 02:17:43;;;;;;;14.60;9.40;;;;;;;15.28;77.35;99521.11;115402;1201;138260;-55
2021/08/29 02:20:16;;;;;;;13.80;8.80;;;;;;;15.31;77.15;99522.27;115406;1205;22404;-55
2021/08/29 02:22:44;;;;;;;14.00;9.40;;;;;;;15.35;76.92;99520.54;115380;1200;138180;-55
2021/08/29 02:25:12;;;;;;;10.70;8.40;;;;;;;15.39;76.74;99520.73;115536;1204;22320;-55
2021/08/29 02:27:40;;;;;;;13.80;9.30;;;;;;;15.43;76.70;99515.58;115422;1199;138049;-55
2021/08/29 02:30:09;;;;;;;12.20;8.70;;;;;;;15.45;76.66;99509.83;115536;1205;22299;-55
2021/08/29 02:32:39;;;;;;;12.30;8.90;;;;;;;15.43;76.35;99511.56;115530;1204;22309;-55
2021/08/29 02:35:09;;;;;;;11.30;8.30;;;;;;;15.38;76.30;99511.28;115427;1202;139115;-55
2021/08/29 02:40:33;;;;;;;10.90;7.90;;;;;;;15.39;76.40;99516.38;109975;1220;545354;-55
2021/08/29 02:43:02;;;;;;;13.20;8.50;;;;;;;15.37;76.33;99528.48;111083;1208;25062;-56
2021/08/29 02:45:41;;;;;;;10.50;8.20;;;;;;;15.36;76.33;99529.48;115693;1198;137719;-56
2021/08/29 02:48:10;;;;;;;10.80;8.30;;;;;;;15.33;76.51;99524.94;115708;1209;22251;-56
2021/08/29 02:51:01;;;;;;;14.90;8.10;;;;;;;15.30;76.68;99518.28;115586;1203;22359;-54
2021/08/29 02:53:30;;;;;;;12.20;8.60;;;;;;;15.25;76.65;99516.95;115426;1201;137680;-54
2021/08/29 02:55:58;;;;;;;10.80;8.40;;;;;;;15.26;76.62;99517.61;115620;1207;22316;-57
2021/08/29 02:58:27;;;;;;;10.80;8.70;;;;;;;15.27;76.58;99521.55;115471;1199;137633;-57
2021/08/29 03:01:04;;;;;;;15.20;8.80;;;;;;;15.30;76.80;99525.10;115646;1204;22275;-57
2021/08/29 03:04:13;;;;;;;12.10;8.70;;;;;;;15.28;76.82;99520.62;115447;1199;139547;-54
2021/08/29 03:06:42;;;;;;;11.20;8.80;;;;;;;15.25;76.77;99518.66;115623;1204;23265;-56
2021/08/29 03:09:10;;;;;;;12.90;8.90;;;;;;;15.22;76.97;99509.46;115557;1204;23363;-56
2021/08/29 03:11:55;;;;;;;11.50;8.90;;;;;;;15.20;77.08;99509.58;115502;1204;138471;-56
2021/08/29 03:14:51;;;;;;;11.10;8.00;;;;;;;15.20;77.21;99509.58;115623;1209;22315;-56
2021/08/29 03:17:21;;;;;;;13.30;9.00;;;;;;;15.20;77.21;99508.92;115390;1201;137398;-56
2021/08/29 03:19:55;;;;;;;13.90;10.00;;;;;;;15.19;77.28;99506.84;115521;1210;23197;-56
2021/08/29 03:22:27;;;;;;;11.80;9.00;;;;;;;15.21;77.21;99508.31;115489;1201;137829;-56
2021/08/29 03:24:57;;;;;;;12.10;9.10;;;;;;;15.22;77.31;99507.32;115646;1204;23285;-56
2021/08/29 03:27:25;;;;;;;10.90;8.90;;;;;;;15.24;77.40;99508.30;115575;1204;22271;-56
2021/08/29 03:29:57;;;;;;;12.80;9.90;;;;;;;15.25;77.26;99505.59;115464;1200;138318;-56
2021/08/29 03:32:25;;;;;;;15.50;8.90;;;;;;;15.27;77.28;99504.44;115604;1203;22304;-56
2021/08/29 03:34:58;;;;;;;13.10;8.40;;;;;;;15.29;77.11;99501.22;115439;1201;137673;-56
2021/08/29 03:37:27;;;;;;;9.00;7.80;;;;;;;15.32;77.23;99502.39;115584;1202;23361;-56
2021/08/29 03:39:57;;;;;;;8.60;6.90;;;;;;;15.34;77.00;99504.23;114164;1199;137868;-56
2021/08/29 03:42:25;;;;;;;10.30;7.70;;;;;;;15.36;76.70;99508.17;115509;1210;22371;-56
2021/08/29 03:44:55;;;;;;;8.60;6.90;;;;;;;15.35;76.48;99500.55;115589;1204;22365;-56
2021/08/29 03:47:24;;;;;;;9.60;6.70;;;;;;;15.36;76.40;99496.14;115475;1199;138167;-56
2021/08/29 03:49:52;;;;;;;12.00;6.40;;;;;;;15.38;76.27;99497.84;115637;1204;22346;-56
2021/08/29 03:52:23;;;;;;;9.10;5.90;;;;;;;15.40;76.16;99493.70;115546;1199;137796;-56
2021/08/29 03:55:31;;;;;;;7.50;5.30;;;;;;;15.41;75.72;99485.08;115537;1210;23060;-56
2021/08/29 03:57:59;;;;;;;10.80;5.50;;;;;;;15.41;75.56;99478.92;115466;1204;137870;-56
2021/08/29 04:00:34;;;;;;;6.90;5.00;;;;;;;15.44;75.37;99474.59;115550;1204;22309;-56
2021/08/29 04:03:06;;;;;;;6.40;4.90;;;;;;;15.45;75.16;99468.15;115668;1204;22389;-56
2021/08/29 04:06:04;;;;;;;7.60;4.90;;;;;;;15.48;74.95;99466.20;115361;1203;137286;-56
2021/08/29 04:08:37;;;;;;;9.60;4.80;;;;;;;15.51;74.91;99462.55;115537;1210;22370;-55
2021/08/29 04:11:07;;;;;;;7.50;4.10;;;;;;;15.54;74.70;99459.34;115580;1199;138347;-54
2021/08/29 04:13:56;;;;;;;5.50;4.10;;;;;;;15.59;74.60;99455.45;115559;1203;22332;-57
2021/08/29 04:16:28;;;;;;;7.50;4.70;;;;;;;15.62;74.53;99453.87;115442;1201;137303;-57
2021/08/29 04:19:02;;;;;;;5.70;4.10;;;;;;;15.67;74.51;99449.98;115476;1204;23131;-54
2021/08/29 04:21:30;;;;;;;9.30;4.30;;;;;;;15.70;74.61;99445.45;115345;1211;22343;-55
2021/08/29 04:24:01;;;;;;;6.80;4.70;;;;;;;15.70;74.63;99443.09;115324;1202;137264;-55
2021/08/29 04:26:40;;;;;;;5.60;3.80;;;;;;;15.71;74.42;99447.31;115493;1204;22334;-55
2021/08/29 04:29:08;;;;;;;4.60;3.60;;;;;;;15.77;74.51;99448.92;115321;1201;137135;-55
2021/08/29 04:31:37;;;;;;;5.20;3.80;;;;;;;15.88;74.29;99452.08;115459;1205;22542;-55
2021/08/29 04:34:08;;;;;;;6.20;3.50;;;;;;;16.04;73.71;99462.58;115349;1201;138640;-55
2021/08/29 04:36:40;;;;;;;6.90;3.40;;;;;;;16.14;72.65;99461.85;115429;1204;22319;-55
2021/08/29 04:39:25;;;;;;;5.10;3.50;;;;;;;16.17;72.10;99462.99;115352;1205;23584;-55
2021/08/29 04:41:54;;;;;;;6.20;3.10;;;;;;;16.17;72.07;99463.94;115349;1202;137321;-55
2021/08/29 04:44:22;;;;;;;5.30;2.90;;;;;;;16.19;71.68;99470.95;115422;1206;22314;-55
2021/08/29 04:46:50;;;;;;;7.00;3.70;;;;;;;16.20;71.62;99472.59;115287;1202;137533;-55
2021/08/29 04:49:19;;;;;;;4.80;3.10;;;;;;;16.21;71.70;99469.92;115527;1205;22374;-56
2021/08/29 04:51:48;;;;;;;7.40;2.90;;;;;;;16.23;71.80;99460.23;115420;1210;139342;-55
2021/08/29 04:54:16;;;;;;;4.00;2.50;;;;;;;16.25;71.53;99445.86;115611;1203;22327;-56
2021/08/29 04:56:44;;;;;;;3.20;2.50;;;;;;;16.29;71.69;99434.31;115605;1204;23314;-55
2021/08/29 04:59:14;;;;;;;3.50;2.50;;;;;;;16.31;71.49;99432.06;115537;1203;136419;-55
2021/08/29 05:01:43;;;;;;;5.50;2.60;;;;;;;16.33;71.34;99438.79;115586;1210;22232;-55
2021/08/29 05:04:12;;;;;;;4.30;2.60;;;;;;;16.33;71.57;99440.02;115606;1199;137671;-55
2021/08/29 05:06:41;;;;;;;2.80;2.20;;;;;;;16.34;71.50;99436.25;115639;1203;22348;-55
2021/08/29 05:09:11;;;;;;;3.80;2.40;;;;;;;16.37;71.51;99431.88;115633;1199;22987;-55
2021/08/29 05:11:39;;;;;;;3.40;2.30;;;;;;;16.41;71.43;99437.92;115411;1204;137370;-55
2021/08/29 05:14:08;;;;;;;6.00;2.60;;;;;;;16.45;71.40;99438.41;115642;1204;22091;-55
2021/08/29 05:16:35;;;;;;;3.10;2.60;;;;;;;16.52;71.05;99430.21;115481;1201;137324;-55
2021/08/29 05:19:04;;;;;;;3.60;2.50;;;;;;;16.55;70.68;99429.11;115716;1202;22320;-55
2021/08/29 05:21:32;;;;;;;4.20;2.40;;;;;;;16.58;70.88;99432.26;115643;1205;22316;-56
2021/08/29 05:24:11;;;;;;;5.00;2.30;;;;;;;16.63;70.98;99425.64;115606;1200;137177;-56
2021/08/29 05:26:48;;;;;;;3.40;2.30;;;;;;;16.70;71.19;99427.88;115659;1205;22244;-55
2021/08/29 05:29:16;;;;;;;4.70;2.30;;;;;;;16.75;70.69;99423.53;115565;1199;137543;-55
2021/08/29 05:31:45;;;;;;;6.80;2.90;;;;;;;16.80;70.47;99424.33;115675;1204;22274;-55
2021/08/29 05:34:17;;;;;;;5.10;2.40;;;;;;;16.85;70.51;99427.33;115594;1198;139004;-56
2021/08/29 05:36:46;;;;;;;3.70;2.80;;;;;;;16.91;70.22;99426.66;115659;1204;22293;-56
2021/08/29 05:39:15;;;;;;;5.40;2.20;;;;;;;16.97;69.77;99420.73;115640;1204;22364;-56
2021/08/29 05:41:44;;;;;;;4.80;2.70;;;;;;;17.04;69.52;99418.46;115539;1201;137952;-56
2021/08/29 05:44:31;;;;;;;3.90;2.10;;;;;;;17.13;68.70;99419.40;115701;1202;23102;-56
2021/08/29 05:46:59;;;;;;;4.20;1.80;;;;;;;17.24;67.87;99419.02;115527;1199;139394;-57
2021/08/29 05:49:29;;;;;;;3.20;2.30;;;;;;;17.35;66.94;99417.47;115733;1204;22364;-57
2021/08/29 05:51:57;;;;;;;3.30;2.30;;;;;;;17.47;67.12;99409.16;115643;1199;137053;-57
2021/08/29 05:54:26;;;;;;;6.20;2.50;;;;;;;17.58;66.75;99403.03;115696;1203;22309;-56
2021/08/29 05:56:55;;;;;;;5.80;2.60;;;;;;;17.68;66.66;99405.29;115744;1205;22199;-57
2021/08/29 05:59:23;;;;;;;5.70;2.30;;;;;;;17.79;66.78;99402.35;115538;1200;136964;-56
2021/08/29 06:01:51;;;;;;;9.10;2.80;;;;;;;17.89;65.97;99403.62;115586;1204;23007;-56
2021/08/29 06:04:22;;;;;;;4.40;2.40;;;;;;;17.96;65.27;99402.36;115528;1201;138450;-56
2021/08/29 06:06:58;;;;;;;4.30;2.50;;;;;;;17.97;64.77;99402.77;115663;1202;23310;-57
2021/08/29 06:09:27;;;;;;;3.90;2.10;;;;;;;17.98;65.18;99403.69;115635;1204;22335;-56
2021/08/29 06:11:56;;;;;;;5.00;2.50;;;;;;;17.99;64.93;99404.61;115591;1199;138840;-56
2021/08/29 06:14:24;;;;;;;5.50;2.50;;;;;;;17.99;64.75;99398.27;115746;1202;22315;-56
2021/08/29 06:16:56;;;;;;;4.60;3.10;;;;;;;17.97;64.47;99385.73;115585;1201;137274;-56
2021/08/29 06:19:29;;;;;;;5.10;2.70;;;;;;;17.94;64.21;99386.09;115708;1202;22222;-57
2021/08/29 06:21:58;;;;;;;6.50;2.60;;;;;;;17.88;64.50;99387.86;115520;1198;137176;-58
2021/08/29 06:24:35;;;;;;;5.90;2.80;;;;;;;17.85;64.46;99380.95;115667;1204;22358;-57
2021/08/29 06:27:21;;;;;;;5.90;2.60;;;;;;;17.81;64.33;99377.21;115763;1203;22314;-57
2021/08/29 06:30:12;;;;;;;6.10;3.90;;;;;;;17.76;63.83;99376.94;115641;1199;139837;-56
2021/08/29 06:33:12;;;;;;;4.80;3.30;;;;;;;17.69;63.97;99372.81;115743;1202;22338;-58
2021/08/29 06:35:50;;;;;;;6.60;3.70;;;;;;;17.65;64.18;99370.79;115492;1200;137650;-58
2021/08/29 06:38:19;;;;;;;6.70;3.50;;;;;;;17.62;64.40;99376.55;115707;1210;22368;-57
2021/08/29 06:40:48;;;;;;;8.10;4.00;;;;;;;17.59;64.60;99375.42;112731;1202;139033;-56
2021/08/29 06:43:16;;;;;;;8.00;4.10;;;;;;;17.60;64.89;99378.41;115613;1203;24050;-58
2021/08/29 06:45:56;;;;;;;6.70;4.00;;;;;;;17.60;64.76;99378.75;115647;1201;137671;-57
2021/08/29 06:48:59;;;;;;;6.80;4.10;;;;;;;17.61;64.79;99377.05;115412;1204;22997;-57
2021/08/29 06:51:46;;;;;;;7.20;3.60;;;;;;;17.62;64.66;99371.46;115744;1209;23552;-58
2021/08/29 06:54:34;;;;;;;6.20;3.30;;;;;;;17.63;64.67;99370.36;115717;1205;22292;-57
2021/08/29 06:57:24;;;;;;;6.30;3.30;;;;;;;17.65;64.79;99368.41;115766;1205;22326;-58
2021/08/29 06:59:53;;;;;;;12.00;4.20;;;;;;;17.68;64.49;99366.44;115456;1201;137758;-57
2021/08/29 07:02:22;;;;;;;5.60;3.30;;;;;;;17.70;64.70;99364.58;115701;1205;22314;-57
2021/08/29 07:04:53;;;;;;;9.50;3.70;;;;;;;17.72;64.39;99365.86;115504;1199;137166;-57
2021/08/29 07:07:21;;;;;;;5.80;3.10;;;;;;;17.75;64.46;99364.11;115685;1203;22261;-58
2021/08/29 07:10:11;;;;;;;6.80;3.20;;;;;;;17.79;64.50;99356.48;115707;1210;22365;-57
2021/08/29 07:12:58;;;;;;;5.90;3.40;;;;;;;17.84;63.97;99351.80;115763;1205;22209;-58
2021/08/29 07:15:30;;;;;;;7.60;3.60;;;;;;;17.88;64.00;99347.96;115586;1204;22285;-57
2021/08/29 07:17:58;;;;;;;6.10;3.60;;;;;;;17.91;64.04;99345.73;115533;1201;137984;-57
2021/08/29 07:20:48;;;;;;;10.70;3.10;;;;;;;17.98;64.81;99340.57;115604;1204;22346;-58
2021/08/29 07:23:45;;;;;;;7.40;3.10;;;;;;;18.03;64.56;99342.00;115345;1201;138790;-57
2021/08/29 07:26:31;;;;;;;6.20;3.20;;;;;;;18.06;64.26;99344.73;115745;1210;22294;-57
2021/08/29 07:29:18;;;;;;;5.90;3.80;;;;;;;18.06;63.86;99345.77;115582;1199;137614;-58
2021/08/29 07:32:05;;;;;;;9.00;3.60;;;;;;;18.05;63.46;99349.73;115649;1205;22380;-58
2021/08/29 07:34:34;;;;;;;5.30;2.90;;;;;;;18.00;63.39;99347.64;115753;1210;22308;-58
2021/08/29 07:37:31;;;;;;;4.50;3.10;;;;;;;17.99;63.63;99353.50;115503;1204;22318;-57
2021/08/29 07:40:00;;;;;;;6.10;4.30;;;;;;;17.99;63.54;99342.92;115456;1204;22416;-58
2021/08/29 07:42:29;;;;;;;7.00;4.10;;;;;;;18.01;63.41;99338.63;115247;1201;138150;-58
2021/08/29 07:44:57;;;;;;;4.30;3.30;;;;;;;18.06;63.68;99337.73;115523;1204;22328;-58
2021/08/29 07:47:28;;;;;;;6.90;3.80;;;;;;;18.13;63.88;99329.17;115319;1201;137937;-59
2021/08/29 07:49:56;;;;;;;9.40;7.40;;;;;;;18.24;63.85;99320.75;115453;1204;22326;-58
2021/08/29 07:52:24;;;;;;;6.30;4.50;;;;;;;18.35;64.09;99318.21;115419;1207;22321;-58
2021/08/29 07:55:19;;;;;;;3.90;2.80;;;;;;;18.47;63.49;99316.91;115267;1203;140016;-59
2021/08/29 07:57:50;;;;;;;8.40;3.40;;;;;;;18.59;63.16;99323.19;115449;1204;23217;-59
2021/08/29 08:00:23;;;;;;;5.00;3.00;;;;;;;18.69;62.90;99322.61;115371;1204;137848;-57
2021/08/29 08:03:14;;;;;;;3.70;2.80;;;;;;;18.82;62.63;99322.70;115523;1205;23231;-58
2021/08/29 08:06:05;;;;;;;4.30;3.10;;;;;;;18.95;63.03;99321.41;115349;1201;137775;-59
2021/08/29 08:09:11;;;;;;;4.70;2.90;;;;;;;19.12;62.73;99314.48;115492;1204;22312;-59
2021/08/29 08:11:57;;;;;;;5.80;3.20;;;;;;;19.22;61.81;99309.64;115519;1199;137538;-58
2021/08/29 08:14:26;;;;;;;4.30;2.90;;;;;;;19.30;61.60;99300.98;115744;1209;22982;-59
2021/08/29 08:16:54;;;;;;;3.70;2.90;;;;;;;19.37;61.46;99294.73;115639;1204;22789;-59
2021/08/29 08:19:27;;;;;;;3.60;2.60;;;;;;;19.46;60.88;99291.52;115561;1198;138570;-59
2021/08/29 08:21:56;;;;;;;5.30;2.70;;;;;;;19.54;61.09;99287.82;115660;1205;22308;-59
2021/08/29 08:24:38;;;;;;;2.80;2.50;;;;;;;19.63;60.80;99281.88;115579;1198;137310;-59
2021/08/29 08:27:24;;;;;;;4.90;2.90;;;;;;;19.71;60.65;99274.41;115701;1203;22333;-58
2021/08/29 08:30:11;;;;;;;2.90;2.40;;;;;;;19.76;60.80;99269.91;115550;1199;136979;-59
2021/08/29 08:32:58;;;;;;;7.40;2.60;;;;;;;19.85;60.60;99279.42;115692;1210;22305;-59
2021/08/29 08:35:54;;;;;;;4.50;3.00;;;;;;;19.94;60.32;99271.83;115406;1199;137001;-57
2021/08/29 08:38:41;;;;;;;4.20;3.30;;;;;;;20.00;59.58;99269.66;115687;1205;22369;-56
2021/08/29 08:41:35;;;;;;;9.90;3.00;;;;;;;20.02;59.26;99264.33;115589;1198;137753;-56
2021/08/29 08:44:22;;;;;;;4.40;2.80;;;;;;;20.07;58.96;99268.08;115713;1205;22231;-57
2021/08/29 08:47:08;;;;;;;3.40;2.90;;;;;;;20.10;59.17;99262.67;115583;1203;138699;-58
2021/08/29 08:50:02;;;;;;;4.70;3.00;;;;;;;20.17;59.31;99254.61;115726;1202;22320;-58
2021/08/29 08:52:49;;;;;;;25.50;16.80;;;;;;;20.28;59.44;99244.89;115691;1209;22430;-57
2021/08/29 08:55:39;;;;;;;15.50;11.40;;;;;;;20.37;59.25;99234.96;115421;1201;137285;-58
2021/08/29 08:58:26;;;;;;;10.00;8.10;;;;;;;20.47;59.36;99228.98;115653;1206;22286;-58
2021/08/29 09:01:13;;;;;;;65.40;39.50;;;;;;;20.55;59.22;99225.69;115484;1202;137306;-57
2021/08/29 09:03:59;;;;;;;7.50;5.10;;;;;;;20.61;58.78;99218.07;115696;1209;22454;-57
2021/08/29 09:06:33;;;;;;;4.30;3.40;;;;;;;20.67;59.04;99207.53;115494;1204;137847;-57
2021/08/29 09:09:03;;;;;;;11.20;4.10;;;;;;;20.78;58.92;99206.33;115515;1204;22388;-57
2021/08/29 09:11:41;;;;;;;7.40;4.00;;;;;;;20.88;59.09;99204.19;115498;1201;137741;-57
2021/08/29 09:14:09;;;;;;;5.40;4.60;;;;;;;20.97;58.45;99204.98;115713;1201;22273;-57
2021/08/29 09:16:56;;;;;;;6.10;3.60;;;;;;;21.07;57.55;99210.06;115641;1205;24112;-57
2021/08/29 09:19:27;;;;;;;9.60;4.90;;;;;;;21.08;57.23;99205.65;115455;1202;136978;-57
2021/08/29 09:21:57;;;;;;;5.90;4.20;;;;;;;21.06;57.78;99206.84;115678;1203;22332;-55
2021/08/29 09:24:29;;;;;;;5.50;3.70;;;;;;;21.08;58.56;99202.79;115469;1202;137797;-57
2021/08/29 09:27:09;;;;;;;6.90;4.60;;;;;;;21.12;58.70;99198.77;115648;1205;22299;-57
2021/08/29 09:30:06;;;;;;;6.20;3.90;;;;;;;21.17;58.62;99190.11;115425;1202;137200;-57
2021/08/29 09:32:35;;;;;;;5.80;3.70;;;;;;;21.19;58.63;99190.92;115539;1204;22319;-57
2021/08/29 09:35:10;;;;;;;4.50;3.80;;;;;;;21.24;59.15;99193.56;115510;1205;22289;-57
2021/08/29 09:37:58;;;;;;;5.80;4.20;;;;;;;21.30;58.51;99189.91;115621;1201;137034;-57
2021/08/29 09:40:49;;;;;;;11.50;5.10;;;;;;;21.31;58.93;99181.17;115546;1210;22289;-59
2021/08/29 09:43:37;;;;;;;6.50;4.10;;;;;;;21.31;58.77;99176.09;115477;1201;137799;-58
2021/08/29 09:46:06;;;;;;;7.00;4.00;;;;;;;21.28;59.05;99174.01;115626;1205;23142;-58
2021/08/29 09:48:55;;;;;;;4.70;3.90;;;;;;;21.27;59.42;99171.97;115668;1205;137055;-59
2021/08/29 09:51:32;;;;;;;7.80;4.90;;;;;;;21.27;59.85;99165.57;115711;1205;22303;-59
2021/08/29 09:54:05;;;;;;;9.50;4.70;;;;;;;21.30;60.28;99159.27;115515;1199;137353;-58
2021/08/29 09:57:08;;;;;;;10.20;4.40;;;;;;;21.37;60.18;99160.64;115635;1205;22967;-58
2021/08/29 09:59:51;;;;;;;6.30;4.00;;;;;;;21.44;60.62;99156.32;115485;1199;137185;-59
2021/08/29 10:02:24;;;;;;;7.90;4.20;;;;;;;21.51;60.14;99151.82;115562;1205;22171;-58
2021/08/29 10:05:14;;;;;;;8.10;4.60;;;;;;;21.58;60.13;99141.26;115636;1210;22311;-58
2021/08/29 10:08:06;;;;;;;6.60;4.40;;;;;;;21.69;59.85;99141.87;115505;1199;137478;-58
2021/08/29 10:10:52;;;;;;;8.80;4.70;;;;;;;21.82;59.75;99140.44;115634;1202;22348;-59
2021/08/29 10:13:23;;;;;;;6.50;4.10;;;;;;;21.91;59.26;99139.73;115485;1201;138306;-58
2021/08/29 10:16:14;;;;;;;5.40;4.80;;;;;;;22.00;59.20;99138.17;115716;1209;22959;-58
2021/08/29 10:18:56;;;;;;;6.30;4.40;;;;;;;22.10;58.91;99140.66;115641;1202;136994;-57
2021/08/29 10:21:43;;;;;;;8.70;4.80;;;;;;;22.18;58.55;99131.54;115738;1202;23247;-59
2021/08/29 10:24:11;;;;;;;7.00;4.20;;;;;;;22.24;58.49;99128.84;115454;1201;138446;-58
2021/08/29 10:26:41;;;;;;;6.60;4.80;;;;;;;22.29;58.55;99123.63;115547;1205;23335;-58
2021/08/29 10:29:39;;;;;;;10.90;5.20;;;;;;;22.34;57.81;99123.41;115625;1202;22261;-58
2021/08/29 10:32:41;;;;;;;8.10;5.30;;;;;;;22.36;57.52;99125.39;115515;1203;22364;-58
2021/08/29 10:35:45;;;;;;;8.10;5.20;;;;;;;22.37;57.80;99125.73;115607;1207;22331;-59
2021/08/29 10:38:32;;;;;;;6.60;4.70;;;;;;;22.41;57.75;99122.63;115607;1198;138434;-59
2021/08/29 10:41:21;;;;;;;8.90;5.20;;;;;;;22.48;58.89;99118.35;115739;1202;22736;-58
2021/08/29 10:43:51;;;;;;;7.00;4.60;;;;;;;22.58;57.91;99111.75;115514;1199;137961;-59
2021/08/29 10:46:38;;;;;;;4.90;4.40;;;;;;;22.67;57.88;99110.30;115761;1203;22272;-57
2021/08/29 10:49:45;;;;;;;5.70;4.60;;;;;;;22.75;58.15;99104.54;115340;1205;137227;-58
2021/08/29 10:52:13;;;;;;;8.90;5.40;;;;;;;22.83;58.78;99099.16;115713;1205;22944;-58
2021/08/29 10:55:06;;;;;;;7.20;5.40;;;;;;;22.92;57.63;99100.17;115608;1199;137783;-58
2021/08/29 10:57:38;;;;;;;10.60;8.70;;;;;;;22.98;57.16;99097.40;115601;1205;23038;-58
2021/08/29 11:00:24;;;;;;;19.80;13.90;;;;;;;23.03;57.34;99105.11;115534;1198;138534;-58
2021/08/29 11:02:53;;;;;;;6.60;5.80;;;;;;;23.05;57.22;99098.65;115630;1205;22326;-57
2021/08/29 11:05:59;;;;;;;14.10;11.10;;;;;;;23.03;57.21;99096.05;115544;1203;22399;-58
2021/08/29 11:08:31;;;;;;;13.60;10.50;;;;;;;22.98;57.08;99088.34;115542;1200;137710;-58
2021/08/29 11:11:00;;;;;;;14.30;9.20;;;;;;;22.93;57.68;99083.29;115605;1202;22326;-58
2021/08/29 11:13:36;;;;;;;9.00;8.00;;;;;;;22.91;57.98;99072.61;115416;1201;139048;-58
2021/08/29 11:16:09;;;;;;;9.20;6.00;;;;;;;22.93;58.06;99074.00;115734;1202;22294;-58
2021/08/29 11:18:59;;;;;;;7.10;6.10;;;;;;;22.93;57.57;99058.67;115650;1201;136964;-58
2021/08/29 11:21:35;;;;;;;8.90;5.90;;;;;;;22.96;58.11;99056.35;115716;1202;23302;-58
2021/08/29 11:24:45;;;;;;;7.00;5.80;;;;;;;23.01;58.36;99057.09;115714;1202;137241;-57
2021/08/29 11:27:32;;;;;;;14.50;5.90;;;;;;;23.07;58.49;99054.89;115537;1205;22324;-58
2021/08/29 11:30:22;;;;;;;9.40;6.10;;;;;;;23.12;57.68;99050.02;115606;1199;137768;-58
2021/08/29 11:32:56;;;;;;;10.40;6.40;;;;;;;23.14;57.84;99047.38;115703;1202;22340;-57
2021/08/29 11:35:29;;;;;;;9.40;6.30;;;;;;;23.16;58.25;99047.94;115663;1202;22988;-58
2021/08/29 11:38:23;;;;;;;9.20;6.60;;;;;;;23.21;58.67;99044.88;115488;1202;137008;-58
2021/08/29 11:41:01;;;;;;;8.90;5.70;;;;;;;23.29;58.75;99037.41;115594;1202;23360;-58
2021/08/29 11:43:34;;;;;;;8.10;5.60;;;;;;;23.38;58.35;99034.09;115452;1201;137762;-58
2021/08/29 11:46:17;;;;;;;9.50;6.30;;;;;;;23.47;58.38;99029.90;115613;1204;22668;-59
2021/08/29 11:49:03;;;;;;;8.10;5.90;;;;;;;23.58;57.14;99030.79;115511;1201;137101;-58
2021/08/29 11:51:39;;;;;;;7.20;6.50;;;;;;;23.69;57.99;99025.90;115636;1207;22312;-58
2021/08/29 11:54:11;;;;;;;10.00;7.10;;;;;;;23.82;58.61;99028.48;115590;1199;137467;-58
2021/08/29 11:56:43;;;;;;;8.40;6.90;;;;;;;23.95;57.61;99024.27;115574;1205;22391;-57
2021/08/29 11:59:14;;;;;;;8.10;7.10;;;;;;;24.07;56.97;99020.69;115632;1202;23174;-58
2021/08/29 12:01:43;;;;;;;11.40;7.20;;;;;;;24.15;56.59;99018.09;115540;1201;137090;-57